Thunder radar more information blitzortung!


Radar de pluja more information rain snow radar


Visita la nostra xarxa de llocs de meteo:

Template documentation
and downloads

And another site



No particular awareness of the weather is required.    There are no Weather-warnings

Pagina Historial Weather Underground text

Diari Resum Juliol 31, 2017 Unitats:  Imperial    Mètric   Tant
« Previous Dia
SegĂźent Dia »
Diari Setmana Mensual Anual Personalitzada
  Maxima: Minima: Media:
Temperatura: 89.8 °F 71.1 °F 82.8 °F
Punt de rosada: 68.9 °F 61.2 °F 65.3 °F
Humitat: 76 % 43 % 57 %
Wind Speed: 15 mph 0 mph 7 mph
RĂ fegues de vent: 15 mph - -
Vent:- - East
Pression baro: 29.8 in 29.7 in -
Precipitacions: 0 in    
Historical Graphs
 
 
Dades de taula per Juliol 31, 2017
Temps Temperatura Punt de rosada Pression baro Vent Wind Speed RĂ fegues de vent Humitat Rainfall Rate (Hourly)
00:00 72.5 °F 62.6 °F 29.8 in NE 3 mph 4 mph 71 % 0 in
00:01 75.6 °F 65.8 °F 29.8 in SW 1.2 mph 1.2 mph 72 % 0 in
00:06 75.6 °F 66.4 °F 29.8 in Calm     73 % 0 in
00:10 72.3 °F 62.4 °F 29.8 in NE 2 mph 3 mph 71 % 0 in
00:11 75.6 °F 66.4 °F 29.8 in ENE 2 mph 2 mph 73 % 0 in
00:20 72.3 °F 62.4 °F 29.8 in NNE 2 mph 4 mph 71 % 0 in
00:30 72.3 °F 62.4 °F 29.8 in NNE 3 mph 4 mph 71 % 0 in
00:40 72.3 °F 62.4 °F 29.8 in NNE 3 mph 4 mph 71 % 0 in
00:50 72.3 °F 62.4 °F 29.8 in NNE 3 mph 4 mph 71 % 0 in
01:00 72.1 °F 62.6 °F 29.8 in NE 3 mph 3 mph 72 % 0 in
01:10 72.1 °F 62.6 °F 29.8 in NE 3 mph 4 mph 72 % 0 in
01:20 72 °F 62.1 °F 29.8 in NE 3 mph 3 mph 71 % 0 in
01:30 72 °F 62.4 °F 29.8 in NE 3 mph 4 mph 72 % 0 in
01:40 71.8 °F 62.2 °F 29.8 in NE 3 mph 4 mph 72 % 0 in
01:50 71.6 °F 62.1 °F 29.8 in NNE 3 mph 4 mph 72 % 0 in
02:00 71.2 °F 62.1 °F 29.8 in NNE 2 mph 3 mph 73 % 0 in
02:10 71.1 °F 61.5 °F 29.8 in NNE 2 mph 3 mph 72 % 0 in
02:20 71.1 °F 61.2 °F 29.8 in NNE 1 mph 3 mph 71 % 0 in
02:30 71.4 °F 61.5 °F 29.8 in NNE 1 mph 3 mph 71 % 0 in
02:40 72.1 °F 61.3 °F 29.8 in NNE 2 mph 3 mph 69 % 0 in
02:50 72.7 °F 61.9 °F 29.8 in NNE 2 mph 3 mph 69 % 0 in
03:00 73.2 °F 62.1 °F 29.8 in NE 2 mph 3 mph 68 % 0 in
03:10 73.8 °F 63 °F 29.8 in ENE 3 mph 3 mph 69 % 0 in
03:20 74.3 °F 63.5 °F 29.8 in ENE 3 mph 3 mph 69 % 0 in
03:30 74.7 °F 63.9 °F 29.8 in ENE 3 mph 4 mph 69 % 0 in
03:40 75 °F 64.2 °F 29.8 in East 2 mph 3 mph 69 % 0 in
03:50 75.9 °F 64.6 °F 29.8 in ENE 3 mph 4 mph 68 % 0 in
04:00 75.9 °F 64.6 °F 29.8 in ENE 3 mph 4 mph 68 % 0 in
04:10 76.5 °F 64.8 °F 29.8 in ENE 3 mph 5 mph 67 % 0 in
04:20 77.2 °F 64.9 °F 29.8 in ENE 3 mph 5 mph 66 % 0 in
04:30 77.5 °F 65.3 °F 29.8 in East 3 mph 5 mph 66 % 0 in
04:40 77.7 °F 64.9 °F 29.8 in ESE 5 mph 5 mph 65 % 0 in
04:50 79.3 °F 66 °F 29.8 in ESE 2 mph 5 mph 64 % 0 in
05:00 79.7 °F 65.5 °F 29.8 in East 6 mph 6 mph 62 % 0 in
05:10 80.2 °F 65.1 °F 29.8 in ENE 5 mph 6 mph 60 % 0 in
05:20 80.6 °F 64.9 °F 29.8 in East 3 mph 4 mph 59 % 0 in
05:30 80.6 °F 64.6 °F 29.8 in East 5 mph 6 mph 58 % 0 in
05:40 81.7 °F 64.9 °F 29.8 in East 7 mph 12 mph 57 % 0 in
05:50 81.9 °F 64 °F 29.8 in East 3 mph 8 mph 55 % 0 in
06:00 82 °F 63.1 °F 29.8 in East 5 mph 10 mph 53 % 0 in
11:03 82.8 °F 63.3 °F 29.8 in ENE 10 mph 10 mph 52 % 0 in
11:08 82.9 °F 63.5 °F 29.8 in ENE 8.1 mph 8.1 mph 52 % 0 in
11:13 83.5 °F 63.3 °F 29.8 in ESE 6 mph 6 mph 51 % 0 in
11:18 83.8 °F 63.9 °F 29.8 in NNW 9.4 mph 9.4 mph 51 % 0 in
11:23 84.2 °F 63.5 °F 29.8 in ESE 9.2 mph 9.2 mph 50 % 0 in
11:28 84.4 °F 63.7 °F 29.8 in North 9.2 mph 9.2 mph 50 % 0 in
11:33 84.9 °F 64.2 °F 29.8 in ENE 8.1 mph 8.1 mph 50 % 0 in
11:38 85.6 °F 64.9 °F 29.8 in NNE 5.4 mph 5.4 mph 50 % 0 in
11:43 85.8 °F 64.6 °F 29.8 in East 7.1 mph 7.1 mph 49 % 0 in
11:48 85.6 °F 64.9 °F 29.8 in ENE 9.4 mph 9.4 mph 50 % 0 in
11:53 85.3 °F 64.6 °F 29.8 in ESE 8.1 mph 8.1 mph 50 % 0 in
11:58 85.3 °F 64 °F 29.8 in ESE 8.1 mph 8.1 mph 49 % 0 in
12:03 86.5 °F 65.1 °F 29.8 in SE 5.8 mph 5.8 mph 49 % 0 in
12:08 86.7 °F 64 °F 29.8 in ENE 8.7 mph 8.7 mph 47 % 0 in
12:13 86.2 °F 63 °F 29.8 in ENE 6.9 mph 6.9 mph 46 % 0 in
12:18 86.4 °F 63.1 °F 29.8 in ESE 6.9 mph 6.9 mph 46 % 0 in
12:23 86.7 °F 63.5 °F 29.8 in East 8.1 mph 8.1 mph 46 % 0 in
12:28 87.3 °F 63.3 °F 29.8 in ENE 13.8 mph 13.8 mph 45 % 0 in
12:33 87.1 °F 63.9 °F 29.8 in ENE 8.1 mph 8.1 mph 46 % 0 in
12:38 87.3 °F 64 °F 29.8 in ESE 8.1 mph 8.1 mph 46 % 0 in
12:43 87.3 °F 64 °F 29.8 in SE 8.1 mph 8.1 mph 46 % 0 in
12:48 87.3 °F 64 °F 29.8 in SW 8.1 mph 8.1 mph 46 % 0 in
12:53 87.4 °F 63.5 °F 29.8 in ESE 13.8 mph 13.8 mph 45 % 0 in
12:58 88 °F 64 °F 29.8 in NE 5.8 mph 5.8 mph 45 % 0 in
13:03 87.8 °F 63.9 °F 29.8 in NNE 5.8 mph 6 mph 45 % 0 in
13:08 87.1 °F 63.1 °F 29.8 in East 11.5 mph 11.5 mph 45 % 0 in
13:13 88.3 °F 64.2 °F 29.8 in ESE 6 mph 6 mph 45 % 0 in
13:18 88.7 °F 64.6 °F 29.8 in ESE 12.7 mph 12.7 mph 45 % 0 in
13:23 88 °F 63.3 °F 29.8 in ESE 8.1 mph 8.1 mph 44 % 0 in
13:28 88.2 °F 63.5 °F 29.8 in ENE 10.5 mph 10.5 mph 44 % 0 in
13:33 88.9 °F 64 °F 29.8 in SE 8.1 mph 8.1 mph 44 % 0 in
13:38 89.2 °F 64.6 °F 29.8 in SE 10.4 mph 10.4 mph 44 % 0 in
13:43 89.1 °F 64.2 °F 29.8 in East 4.9 mph 4.9 mph 44 % 0 in
13:48 89.4 °F 64.6 °F 29.8 in East 8.1 mph 8.1 mph 44 % 0 in
13:53 88.9 °F 64 °F 29.8 in East 9.2 mph 9.2 mph 44 % 0 in
13:58 88.7 °F 64 °F 29.8 in ESE 5.8 mph 6.2 mph 44 % 0 in
14:03 89.2 °F 64.6 °F 29.8 in ESE 9.2 mph 9.2 mph 44 % 0 in
14:08 89.4 °F 64.6 °F 29.8 in ESE 9.2 mph 9.2 mph 44 % 0 in
14:13 89.4 °F 64.6 °F 29.8 in SE 8.1 mph 8.1 mph 44 % 0 in
14:18 89.4 °F 64 °F 29.8 in East 9.2 mph 9.2 mph 43 % 0 in
14:23 89.8 °F 64.2 °F 29.8 in East 9.2 mph 9.2 mph 43 % 0 in
14:28 89.1 °F 64.9 °F 29.8 in ESE 10.4 mph 10.4 mph 45 % 0 in
14:33 89.2 °F 65.1 °F 29.8 in ESE 10.4 mph 10.4 mph 45 % 0 in
14:38 89.1 °F 64.9 °F 29.8 in ENE 9.2 mph 9.2 mph 45 % 0 in
14:43 89.1 °F 64.9 °F 29.8 in ENE 12.7 mph 12.7 mph 45 % 0 in
14:48 89.1 °F 64.9 °F 29.8 in ESE 12.1 mph 12.1 mph 45 % 0 in
14:53 88.5 °F 65.1 °F 29.8 in ESE 13.8 mph 13.8 mph 46 % 0 in
14:58 88.3 °F 64.9 °F 29.8 in ESE 10.4 mph 10.4 mph 46 % 0 in
15:03 88.5 °F 65.7 °F 29.8 in ESE 13.8 mph 13.8 mph 47 % 0 in
15:08 88.2 °F 65.5 °F 29.8 in ESE 11.5 mph 11.5 mph 47 % 0 in
15:13 87.8 °F 65.1 °F 29.8 in ESE 15 mph 15 mph 47 % 0 in
15:18 88.2 °F 65.5 °F 29.8 in SE 8.7 mph 8.7 mph 47 % 0 in
15:23 88.3 °F 65.7 °F 29.8 in SE 10.4 mph 10.4 mph 47 % 0 in
15:28 88 °F 65.8 °F 29.8 in ESE 10.2 mph 10.2 mph 48 % 0 in
15:33 88.2 °F 66 °F 29.8 in ESE 10.4 mph 10.4 mph 48 % 0 in
15:38 88.5 °F 66.9 °F 29.8 in ESE 4.6 mph 4.7 mph 49 % 0 in
15:43 88.5 °F 66.4 °F 29.8 in ESE 10.4 mph 10.4 mph 48 % 0 in
15:48 88.3 °F 66.2 °F 29.8 in ESE 8.1 mph 8.1 mph 48 % 0 in
15:53 88.7 °F 66.6 °F 29.8 in ENE 11.5 mph 11.5 mph 48 % 0 in
15:58 88.9 °F 66.7 °F 29.8 in NE 8.1 mph 8.1 mph 48 % 0 in
16:03 88.9 °F 66.7 °F 29.8 in ESE 9.2 mph 9.2 mph 48 % 0 in
16:08 88.5 °F 65.7 °F 29.8 in SE 8.1 mph 8.1 mph 47 % 0 in
16:13 88.7 °F 66.6 °F 29.8 in ESE 8.1 mph 8.1 mph 48 % 0 in
16:18 88.5 °F 66.4 °F 29.8 in ESE 6.9 mph 6.9 mph 48 % 0 in
16:23 89.2 °F 66.4 °F 29.8 in ESE 6.9 mph 6.9 mph 47 % 0 in
16:24 89.2 °F 66.4 °F 29.8 in ESE 6.9 mph 6.9 mph 47 % 0 in
16:29 88.9 °F 66 °F 29.8 in ENE 10.4 mph 10.4 mph 47 % 0 in
16:34 89.2 °F 65.8 °F 29.8 in ESE 10.4 mph 10.4 mph 46 % 0 in
16:39 89.2 °F 65.8 °F 29.8 in ESE 8.5 mph 8.5 mph 46 % 0 in
16:44 89.8 °F 66.2 °F 29.8 in ENE 8.1 mph 8.1 mph 46 % 0 in
16:49 89.4 °F 66.6 °F 29.8 in SE 9.7 mph 9.7 mph 47 % 0 in
16:54 88.9 °F 66 °F 29.8 in ENE 8.1 mph 8.1 mph 47 % 0 in
16:59 88.5 °F 65.7 °F 29.8 in ESE 8.1 mph 8.1 mph 47 % 0 in
17:04 88.5 °F 65.7 °F 29.8 in ESE 8.1 mph 8.1 mph 47 % 0 in
17:05 88.5 °F 65.7 °F 29.8 in SSE 11.5 mph 11.5 mph 47 % 0 in
17:10 88.7 °F 65.8 °F 29.8 in ESE 9.2 mph 9.2 mph 47 % 0 in
17:15 88.5 °F 65.7 °F 29.8 in SE 12.8 mph 12.8 mph 47 % 0 in
17:20 87.8 °F 65.1 °F 29.8 in East 8.1 mph 8.1 mph 47 % 0 in
17:25 88 °F 65.1 °F 29.8 in ESE 10.4 mph 10.4 mph 47 % 0 in
17:30 88.2 °F 66 °F 29.8 in ESE 5.8 mph 5.8 mph 48 % 0 in
17:35 87.8 °F 65.1 °F 29.8 in East 6.9 mph 6.9 mph 47 % 0 in
17:40 87.4 °F 65.3 °F 29.8 in ESE 10.4 mph 10.4 mph 48 % 0 in
17:45 86.5 °F 65.1 °F 29.8 in East 9 mph 13 mph 49 % 0 in
17:50 86.5 °F 65.7 °F 29.8 in ESE 3 mph 10 mph 50 % 0 in
17:55 86.4 °F 64.9 °F 29.8 in ESE 7 mph 11 mph 49 % 0 in
18:00 85.8 °F 65.7 °F 29.8 in ESE 8.1 mph 8.1 mph 51 % 0 in
18:05 85.5 °F 65.3 °F 29.8 in ESE 10.2 mph 10.2 mph 51 % 0 in
18:10 85.3 °F 66.2 °F 29.8 in ESE 5.8 mph 5.8 mph 53 % 0 in
18:15 85.3 °F 66.2 °F 29.8 in ENE 10.4 mph 10.4 mph 53 % 0 in
18:20 84.7 °F 66.4 °F 29.8 in East 11.5 mph 11.5 mph 54 % 0 in
18:25 84.6 °F 66 °F 29.8 in East 6 mph 10 mph 54 % 0 in
18:30 84.2 °F 66.7 °F 29.8 in NNE 8.1 mph 8.1 mph 56 % 0 in
18:35 84.4 °F 66.9 °F 29.8 in NE 6.9 mph 6.9 mph 56 % 0 in
18:40 83.5 °F 67.1 °F 29.8 in East 10.4 mph 10.4 mph 58 % 0 in
18:45 83.3 °F 67.5 °F 29.8 in East 8.1 mph 8.1 mph 59 % 0 in
18:50 83.1 °F 66.7 °F 29.8 in NE 8.1 mph 8.1 mph 58 % 0 in
18:55 82.8 °F 66.9 °F 29.8 in East 8.1 mph 8.1 mph 59 % 0 in
19:00 82.4 °F 67.1 °F 29.8 in ESE 7.1 mph 7.1 mph 60 % 0 in
19:05 82.4 °F 67.1 °F 29.8 in ESE 8.7 mph 8.7 mph 60 % 0 in
19:10 82.6 °F 66.7 °F 29.8 in ESE 8.1 mph 8.1 mph 59 % 0 in
19:15 82.8 °F 66.9 °F 29.8 in ENE 8.1 mph 8.1 mph 59 % 0 in
19:20 82.4 °F 67.1 °F 29.7 in ENE 10.4 mph 10.4 mph 60 % 0 in
19:25 82.6 °F 67.3 °F 29.7 in East 5.8 mph 5.8 mph 60 % 0 in
19:30 82.2 °F 66.9 °F 29.7 in ENE 8.1 mph 8.1 mph 60 % 0 in
19:35 81.9 °F 66.6 °F 29.7 in ESE 8.1 mph 8.1 mph 60 % 0 in
19:40 81.9 °F 67.1 °F 29.7 in ESE 6.9 mph 6.9 mph 61 % 0 in
19:45 81.7 °F 67.5 °F 29.7 in East 10.4 mph 10.4 mph 62 % 0 in
19:50 81.5 °F 67.3 °F 29.8 in ESE 6.9 mph 6.9 mph 62 % 0 in
19:55 81.5 °F 67.6 °F 29.8 in East 5.8 mph 5.8 mph 63 % 0 in
20:00 81.3 °F 67.5 °F 29.8 in ESE 8.1 mph 8.1 mph 63 % 0 in
20:05 81.1 °F 67.3 °F 29.8 in ESE 8.1 mph 8.1 mph 63 % 0 in
20:10 81 °F 67.3 °F 29.8 in East 9.2 mph 9.2 mph 63 % 0 in
20:15 80.8 °F 66.9 °F 29.8 in ESE 5.4 mph 5.4 mph 63 % 0 in
20:20 80.6 °F 67.3 °F 29.8 in ESE 8.1 mph 8.1 mph 64 % 0 in
20:25 80.6 °F 66.7 °F 29.8 in East 5.8 mph 5.8 mph 63 % 0 in
20:26 80.6 °F 66.7 °F 29.8 in ENE 5.8 mph 5.8 mph 63 % 0 in
20:31 80.4 °F 67.6 °F 29.8 in ESE 5.8 mph 5.8 mph 65 % 0 in
20:36 80.2 °F 67.5 °F 29.8 in East 4.3 mph 4.3 mph 65 % 0 in
20:41 80.1 °F 67.6 °F 29.8 in ESE 3.5 mph 3.5 mph 66 % 0 in
20:46 79.9 °F 67.8 °F 29.8 in SE 7.1 mph 7.1 mph 67 % 0 in
20:51 79.5 °F 67.6 °F 29.8 in SSE 5.6 mph 5.6 mph 67 % 0 in
20:56 79.3 °F 67.8 °F 29.8 in East 6.2 mph 6.2 mph 68 % 0 in
21:01 79.2 °F 68.2 °F 29.8 in ESE 4.6 mph 4.6 mph 69 % 0 in
21:06 78.8 °F 67.8 °F 29.8 in SE 6.9 mph 6.9 mph 69 % 0 in
21:11 78.8 °F 67.8 °F 29.8 in ESE 6.9 mph 6.9 mph 69 % 0 in
21:16 78.6 °F 68 °F 29.8 in ENE 6.9 mph 6.9 mph 70 % 0 in
21:21 78.4 °F 67.5 °F 29.8 in NE 3.5 mph 3.5 mph 69 % 0 in
21:26 78.3 °F 67.3 °F 29.8 in ENE 4.6 mph 4.6 mph 69 % 0 in
21:31 78.3 °F 67.3 °F 29.8 in ENE 5.8 mph 5.8 mph 69 % 0 in
21:36 78.1 °F 67.5 °F 29.8 in ENE 5.8 mph 5.8 mph 70 % 0 in
21:41 77.9 °F 67.6 °F 29.8 in ESE 5.4 mph 5.4 mph 71 % 0 in
21:46 77.9 °F 67.6 °F 29.8 in ENE 4.6 mph 4.6 mph 71 % 0 in
21:51 77.7 °F 68 °F 29.8 in East 5.8 mph 5.8 mph 72 % 0 in
21:56 77.5 °F 67.8 °F 29.8 in ENE 8.1 mph 8.1 mph 72 % 0 in
21:57 77.5 °F 68.2 °F 29.8 in ESE 5.8 mph 5.8 mph 73 % 0 in
22:02 77.4 °F 68 °F 29.8 in ESE 5.8 mph 5.8 mph 73 % 0 in
22:07 77.4 °F 68.4 °F 29.8 in NNE 5.8 mph 5.8 mph 74 % 0 in
22:12 77.2 °F 68.2 °F 29.8 in ENE 6.9 mph 6.9 mph 74 % 0 in
22:17 77.2 °F 68.5 °F 29.8 in ENE 8.1 mph 8.1 mph 75 % 0 in
22:22 77 °F 68.5 °F 29.8 in ENE 6.9 mph 6.9 mph 75 % 0 in
22:27 77 °F 68.9 °F 29.8 in East 5.8 mph 5.8 mph 76 % 0 in
Meteo Sesrovires
Elogis d' Weather Underground - 3.5 mb

Guio original per  Jim McMurry - jmcmurry@mwt.net Adaptat per a la plantilla per  Wim van der Kuil - Leuven-Template.eu

Trobareu la nostra informacio del temps tambe a:

Weather Underground

AWEKAS